x

Dunkirk, Ny (dbln6) Weather Station

8:00pm - Thu 20th Nov 2014 All times are CST. -6 hours from GMT.

  • Wind
    36mph, 43mph gusts
  • Air Temp 28°f
  • Sea Pressure 1013.5mb
  • Dunkirk, Ny
  • Dunkirk, Ny

More Historic Weather Station data

Upgrade to MSW Pro to gain access to the past 30 days of data for over 8000 Wavebouys and Weather Stations around the globe.

Join Pro

Comparision Forecast

View Surf forecast
   
Thu 11/20 8:00pm 36 43 mph 1013.5mb 28f
7:00pm 34 43 mph 1013.4mb 27f
6:00pm 30 36 mph 1013.5mb 27f
5:00pm 23 33 mph 1013.2mb 24f
4:00pm 24 32 mph 1012.8mb 25f
3:00pm 32 38 mph 1011mb 26f
2:00pm 39 44 mph 1009.4mb 27f
1:00pm 28 36 mph 1010.7mb 25f
12:00pm 28 36 mph 1010.4mb 25f
11:00am 24 32 mph 1011.3mb 25f
10:00am 22 31 mph 1011.8mb 24f
9:00am 21 29 mph 1012.1mb 24f
8:00am 29 38 mph 1010.7mb 24f
7:00am 21 30 mph 1010.9mb 24f
6:00am 23 28 mph 1010.5mb 25f
5:00am 21 30 mph 1010.1mb 25f
4:00am 34 40 mph 1008.3mb 27f
3:00am 32 40 mph 1008.1mb 28f
2:00am 31 37 mph 1007.9mb 28f
1:00am 21 29 mph 1008.6mb 28f
12:00am 39 45 mph 1007.8mb 30f
Wed 11/19 11:00pm 45 53 mph 1006.8mb 32f
10:00pm 45 53 mph 1004.6mb 33f
9:00pm 17 25 mph 1007.3mb 33f
8:00pm 15 26 mph 1007.8mb 32f
7:00pm 9 17 mph 1008.7mb 29f
6:00pm 14 23 mph 1009.4mb 28f
5:00pm 11 21 mph 1010.1mb 26f
4:00pm 17 25 mph 1010.6mb 24f
3:00pm 16 21 mph 1011.4mb 23f
2:00pm 11 16 mph 1012.2mb 22f
1:00pm 15 21 mph 1013.9mb 25f
12:00pm 15 23 mph 1016mb 25f
11:00am 14 23 mph 1017.8mb 24f
10:00am 14 22 mph 1019mb 22f
9:00am 8 14 mph 1020.1mb 19f
8:00am 13 20 mph 1020.6mb 17f
7:00am 11 17 mph 1020.6mb 15f
6:00am 8 11 mph 1020.6mb 14f
5:00am 10 15 mph 1019.9mb 15f
4:00am 10 20 mph 1019.6mb 17f
3:00am 14 21 mph 1019.7mb 17f
2:00am 14 24 mph 1019.7mb 17f
1:00am 15 22 mph 1019.2mb 17f
12:00am 16 24 mph 1018.8mb 17f
Tue 11/18 11:00pm 17 24 mph 1018.4mb 18f
10:00pm 17 25 mph 1017.5mb 17f
9:00pm 22 31 mph 1016.8mb 16f
8:00pm 25 34 mph 1015.8mb 18f
7:00pm 28 40 mph 1014.8mb 18f
6:00pm 22 32 mph 1014.4mb 18f
5:00pm 18 32 mph 1013.7mb 18f
4:00pm 21 30 mph 1012.6mb 19f
3:00pm 29 46 mph 1011.2mb 19f
2:00pm 18 26 mph 1011.7mb 20f
1:00pm 25 46 mph 1010.2mb 19f
12:00pm 20 37 mph 1010.5mb 18f
11:00am 20 29 mph 1010.6mb 18f
10:00am 15 24 mph 1011mb 17f
9:00am 21 32 mph 1010mb 16f
8:00am 15 21 mph 1010mb 15f
7:00am 11 22 mph 1009.7mb 15f
6:00am 20 30 mph 1008.5mb 16f
5:00am 23 29 mph 1007.6mb 18f
4:00am 24 33 mph 1007.2mb 18f
3:00am 24 33 mph 1007.1mb 18f
2:00am 21 29 mph 1007mb 20f
1:00am 22 30 mph 1006.7mb 22f
12:00am 21 31 mph 1006.5mb 22f
Mon 11/17 11:00pm 22 33 mph 1006.3mb 23f
10:00pm 24 40 mph 1005.4mb 24f
9:00pm 31 40 mph 1004.5mb 26f
8:00pm 25 37 mph 1004.2mb 29f
7:00pm 24 34 mph 1003.9mb 31f
6:00pm 28 34 mph 1003.4mb 33f
5:00pm 41 48 mph 1000.4mb 35f
4:00pm 37 44 mph 1000.2mb 37f
3:00pm 24 30 mph 1000.8mb 36f
2:00pm 26 31 mph 999.8mb 37f
1:00pm 8 13 mph 1000.2mb 35f
12:00pm 7 9 mph 1000.8mb 35f
11:00am 6 9 mph 1001.5mb 34f
10:00am 2 3 mph 1002.6mb 34f
9:00am 2
mph
1003.8mb 33f
8:00am 2
mph
1005.2mb 33f
7:00am 2 3 mph 1006.5mb 33f
6:00am 1 2 mph 1007.2mb 33f
5:00am 3 5 mph 1007.5mb 34f
4:00am 2
mph
1008.6mb 34f